| Date | Time | Temp. (oF) | Dew Point (oF) | Rel. Hum. (%) | Press. (in.) | Wind Dir. | Wind Speed (mph) | Hourly Rainfall (in.) |
|
|---|---|---|---|---|---|---|---|---|---|
| 1 | 03/23 | 00:00 | 41 | 25 | 54 | 30.32 | N | 8 | 0.00 |
| 2 | 03/22 | 23:00 | 43 | 29 | 58 | 30.31 | NNE | 4 | 0.00 |
| 3 | 03/22 | 22:00 | 47 | 30 | 52 | 30.27 | NE | 6 | 0.00 |
| 4 | 03/22 | 21:00 | 50 | 30 | 47 | 30.24 | NE | 8 | 0.00 |
| 5 | 03/22 | 20:00 | 52 | 30 | 44 | 30.21 | NW | 0 | 0.00 |
| 6 | 03/22 | 19:00 | 55 | 31 | 41 | 30.21 | NNW | 0 | 0.00 |
| 7 | 03/22 | 18:00 | 55 | 30 | 40 | 30.21 | W | 4 | 0.00 |
| 8 | 03/22 | 17:00 | 55 | 29 | 38 | 30.22 | NNW | 7 | 0.00 |
| 9 | 03/22 | 16:00 | 55 | 29 | 38 | 30.24 | N | 10 | 0.00 |
| 10 | 03/22 | 15:00 | 56 | 34 | 44 | 30.25 | NW | 10 | 0.00 |
| 11 | 03/22 | 14:00 | 54 | 30 | 40 | 30.29 | NNW | 2 | 0.00 |
| 12 | 03/22 | 13:00 | 52 | 29 | 42 | 30.32 | NNW | 8 | 0.00 |
| 13 | 03/22 | 12:00 | 50 | 26 | 40 | 30.35 | N | 9 | 0.00 |
| 14 | 03/22 | 11:00 | 46 | 28 | 51 | 30.38 | N | 7 | 0.00 |
| 15 | 03/22 | 10:00 | 40 | 29 | 65 | 30.39 | W | 3 | 0.00 |
| 16 | 03/22 | 09:00 | 34 | 29 | 82 | 30.40 | SW | 0 | 0.00 |
| 17 | 03/22 | 08:00 | 27 | 24 | 91 | 30.40 | SW | 0 | 0.00 |
| 18 | 03/22 | 07:00 | 25 | 22 | 89 | 30.41 | WSW | 0 | 0.00 |
| 19 | 03/22 | 06:00 | 26 | 22 | 86 | 30.40 | SW | 0 | 0.00 |
| 20 | 03/22 | 05:00 | 26 | 22 | 85 | 30.41 | SW | 2 | 0.00 |
| 21 | 03/22 | 04:00 | 28 | 22 | 80 | 30.42 | W | 0 | 0.00 |
| 22 | 03/22 | 03:00 | 29 | 23 | 79 | 30.43 | SW | 0 | 0.00 |
| 23 | 03/22 | 02:00 | 29 | 21 | 73 | 30.43 | WSW | 0 | 0.00 |
| 24 | 03/22 | 01:00 | 30 | 20 | 68 | 30.44 | WSW | 0 | 0.00 |